createdAt,value
2019-01-21T00:00:39.065Z,22.35
2019-01-21T00:03:14.091Z,21.85
2019-01-21T00:05:36.102Z,22.25
2019-01-21T00:08:03.719Z,22.20
2019-01-21T00:10:31.118Z,21.17
2019-01-21T00:12:58.449Z,21.87
2019-01-21T00:15:25.783Z,22.37
2019-01-21T00:17:53.091Z,21.70
2019-01-21T00:20:20.595Z,22.67
2019-01-21T00:22:47.941Z,19.98
2019-01-21T00:25:15.311Z,22.60
2019-01-21T00:27:42.678Z,24.05
2019-01-21T00:30:10.297Z,21.07
2019-01-21T00:32:37.669Z,21.17
2019-01-21T00:35:05.216Z,21.52
2019-01-21T00:37:32.647Z,22.70
2019-01-21T00:40:00.194Z,23.75
2019-01-21T00:42:27.569Z,24.00
2019-01-21T00:44:54.902Z,27.90
2019-01-21T00:47:22.129Z,21.12
2019-01-21T00:49:49.451Z,19.32
2019-01-21T00:52:16.828Z,21.33
2019-01-21T00:54:44.209Z,21.80
2019-01-21T00:57:11.538Z,22.65
2019-01-21T00:59:38.889Z,24.32
2019-01-21T01:02:06.233Z,22.60
2019-01-21T01:04:33.581Z,22.50
2019-01-21T01:07:00.973Z,22.40
2019-01-21T01:09:28.293Z,20.62
2019-01-21T01:11:55.649Z,20.15
2019-01-21T01:14:23.129Z,19.20
2019-01-21T01:16:52.836Z,19.73
2019-01-21T01:19:20.149Z,19.70
2019-01-21T01:21:47.508Z,21.20
2019-01-21T01:24:14.716Z,22.85
2019-01-21T01:26:42.115Z,20.95
2019-01-21T01:29:09.518Z,21.27
2019-01-21T01:31:36.839Z,21.50
2019-01-21T01:34:04.171Z,22.98
2019-01-21T01:36:31.585Z,20.15
2019-01-21T01:38:58.820Z,21.23
2019-01-21T01:41:26.128Z,20.43
2019-01-21T01:43:53.463Z,21.17
2019-01-21T01:46:20.869Z,21.57
2019-01-21T01:48:48.237Z,21.07
2019-01-21T01:51:15.833Z,22.05
2019-01-21T01:53:43.269Z,21.82
2019-01-21T01:56:10.606Z,21.27
2019-01-21T01:58:37.950Z,19.27
2019-01-21T02:01:05.286Z,20.30
2019-01-21T02:03:32.727Z,20.10
2019-01-21T02:06:00.109Z,19.60
2019-01-21T02:08:27.343Z,18.77
2019-01-21T02:10:54.549Z,18.12
2019-01-21T02:13:21.829Z,19.90
2019-01-21T02:15:49.250Z,19.10
2019-01-21T02:18:16.608Z,19.40
2019-01-21T02:20:45.205Z,18.80
2019-01-21T02:23:16.439Z,18.67
2019-01-21T02:25:52.193Z,20.55
2019-01-21T02:28:31.939Z,19.70
2019-01-21T02:31:21.793Z,20.77
2019-01-21T02:34:27.306Z,19.85
2019-01-21T02:37:27.893Z,19.57
2019-01-21T02:40:12.153Z,20.02
2019-01-21T02:42:58.792Z,19.42
2019-01-21T02:46:12.533Z,20.10
2019-01-21T02:49:04.089Z,19.73
2019-01-21T02:52:16.996Z,20.08
2019-01-21T02:55:26.846Z,19.82
2019-01-21T02:58:30.476Z,21.40
2019-01-21T03:01:49.432Z,19.82
2019-01-21T03:05:16.698Z,19.10
2019-01-21T03:08:29.215Z,19.45
2019-01-21T03:11:39.057Z,19.55
2019-01-21T03:14:32.870Z,18.95
2019-01-21T03:17:18.944Z,19.32
2019-01-21T03:20:15.509Z,20.43
2019-01-21T03:23:38.151Z,20.52
2019-01-21T03:26:29.154Z,16.62
2019-01-21T03:29:32.456Z,18.27
2019-01-21T03:32:39.230Z,19.70
2019-01-21T03:35:43.213Z,18.15
2019-01-21T03:38:49.785Z,19.98
2019-01-21T03:41:49.384Z,18.90
2019-01-21T03:44:41.789Z,19.02
2019-01-21T03:47:48.986Z,17.50
2019-01-21T03:50:56.608Z,17.87
2019-01-21T03:53:50.016Z,17.02
2019-01-21T03:57:03.659Z,16.57
2019-01-21T03:59:38.512Z,17.55
2019-01-21T04:02:31.632Z,18.67
2019-01-21T04:05:27.510Z,17.77
2019-01-21T04:08:19.743Z,18.00
2019-01-21T04:11:19.245Z,15.78
2019-01-21T04:14:26.800Z,18.05
2019-01-21T04:17:43.924Z,16.52
2019-01-21T04:21:05.673Z,18.25
2019-01-21T04:23:55.587Z,16.25
2019-01-21T04:27:16.440Z,17.15
2019-01-21T04:30:28.684Z,16.75
2019-01-21T04:33:23.530Z,17.90
2019-01-21T04:36:19.821Z,18.15
2019-01-21T04:39:05.108Z,17.30
2019-01-21T04:41:58.236Z,18.02
2019-01-21T04:45:06.158Z,17.12
2019-01-21T04:48:32.993Z,18.70
2019-01-21T04:51:23.093Z,17.35
2019-01-21T04:54:52.870Z,17.90
2019-01-21T04:57:35.533Z,17.67
2019-01-21T05:00:56.832Z,18.95
2019-01-21T05:03:45.653Z,17.00
2019-01-21T05:06:46.180Z,17.82
2019-01-21T05:09:40.794Z,18.35
2019-01-21T05:12:35.122Z,18.10
2019-01-21T05:15:49.088Z,17.73
2019-01-21T05:18:46.741Z,17.52
2019-01-21T05:22:03.705Z,17.00
2019-01-21T05:24:53.146Z,17.50
2019-01-21T05:27:56.620Z,19.20
2019-01-21T05:30:46.105Z,16.57
2019-01-21T05:33:54.234Z,18.02
2019-01-21T05:37:05.440Z,17.75
2019-01-21T05:39:58.705Z,16.73
2019-01-21T05:43:03.485Z,16.70
2019-01-21T05:46:01.630Z,15.93
2019-01-21T05:49:03.459Z,15.72
2019-01-21T05:52:14.878Z,12.37
2019-01-21T05:55:32.838Z,16.00
2019-01-21T05:58:30.722Z,15.95
2019-01-21T06:01:31.564Z,16.30
2019-01-21T06:04:28.426Z,13.15
2019-01-21T06:07:28.537Z,16.30
2019-01-21T06:10:11.339Z,14.80
2019-01-21T06:13:10.994Z,16.20
2019-01-21T06:16:07.309Z,15.20
2019-01-21T06:18:57.365Z,15.18
2019-01-21T06:22:14.783Z,15.85
2019-01-21T06:25:14.747Z,14.43
2019-01-21T06:28:06.964Z,15.68
2019-01-21T06:30:57.144Z,15.13
2019-01-21T06:36:04.036Z,14.63
2019-01-21T06:38:44.237Z,16.10
2019-01-21T06:41:24.282Z,16.23
2019-01-21T06:44:04.290Z,16.37
2019-01-21T06:46:44.358Z,17.07
2019-01-21T06:49:24.552Z,17.73
2019-01-21T06:52:04.318Z,17.10
2019-01-21T06:54:44.504Z,15.95
2019-01-21T06:57:24.676Z,15.98
2019-01-21T07:00:04.800Z,17.05
2019-01-21T07:02:44.846Z,16.82
2019-01-21T07:05:25.047Z,15.25
2019-01-21T07:08:04.886Z,17.40
2019-01-21T07:10:45.028Z,16.48
2019-01-21T07:13:38.244Z,17.10
2019-01-21T07:16:44.686Z,16.60
2019-01-21T07:19:51.011Z,16.65
2019-01-21T07:22:57.391Z,16.65
2019-01-21T07:26:03.684Z,15.32
2019-01-21T07:29:09.994Z,17.27
2019-01-21T07:32:00.248Z,17.15
2019-01-21T07:34:39.821Z,17.45
2019-01-21T07:37:19.879Z,17.07
2019-01-21T07:40:00.230Z,16.48
2019-01-21T07:42:40.338Z,17.40
2019-01-21T07:45:20.326Z,13.80
2019-01-21T07:51:01.684Z,16.05
2019-01-21T07:53:42.437Z,16.57
2019-01-21T07:56:22.870Z,16.15
2019-01-21T07:59:02.845Z,18.02
2019-01-21T08:01:42.780Z,16.07
2019-01-21T08:04:22.710Z,16.10
2019-01-21T08:07:02.833Z,17.35
2019-01-21T08:09:42.754Z,16.73
2019-01-21T08:12:22.666Z,15.13
2019-01-21T08:15:02.839Z,17.25
2019-01-21T08:17:42.820Z,17.25
2019-01-21T08:20:22.836Z,17.23
2019-01-21T08:23:02.887Z,17.67
2019-01-21T08:25:42.936Z,18.52
2019-01-21T08:28:23.272Z,16.25
2019-01-21T08:31:05.250Z,17.10
2019-01-21T08:33:45.639Z,17.50
2019-01-21T08:36:25.867Z,18.48
2019-01-21T08:39:05.822Z,18.40
2019-01-21T08:41:45.928Z,17.92
2019-01-21T08:44:52.312Z,17.67
2019-01-21T08:47:58.622Z,17.27
2019-01-21T08:50:57.706Z,17.80
2019-01-21T08:54:04.008Z,18.10
2019-01-21T08:57:10.277Z,18.57
2019-01-21T09:00:16.578Z,16.23
2019-01-21T09:03:22.902Z,17.27
2019-01-21T09:06:29.194Z,18.30
2019-01-21T09:09:35.510Z,16.48
2019-01-21T09:12:27.388Z,16.40
2019-01-21T09:15:33.700Z,17.27
2019-01-21T09:18:40.027Z,17.05
2019-01-21T09:21:46.349Z,16.55
2019-01-21T09:24:46.362Z,16.77
2019-01-21T09:27:52.673Z,15.93
2019-01-21T09:30:46.370Z,14.63
2019-01-21T09:33:52.693Z,14.90
2019-01-21T09:36:32.313Z,14.63
2019-01-21T09:39:12.235Z,14.33
2019-01-21T09:42:04.101Z,15.77
2019-01-21T09:44:57.349Z,15.03
2019-01-21T09:47:23.708Z,15.03
2019-01-21T09:49:51.353Z,16.10
2019-01-21T09:52:19.474Z,16.10
2019-01-21T09:54:47.627Z,15.03
2019-01-21T09:57:34.647Z,15.57
2019-01-21T10:00:21.477Z,15.33
2019-01-21T10:03:08.325Z,16.57
2019-01-21T10:09:39.364Z,15.40
2019-01-21T10:12:45.690Z,16.17
2019-01-21T10:15:52.013Z,16.10
2019-01-21T10:18:43.727Z,16.00
2019-01-21T10:21:50.041Z,16.20
2019-01-21T10:24:41.069Z,16.03
2019-01-21T10:27:47.416Z,16.20
2019-01-21T10:30:53.660Z,17.10
2019-01-21T10:33:59.894Z,16.03
2019-01-21T10:36:39.687Z,16.37
2019-01-21T10:39:21.225Z,18.07
2019-01-21T10:42:00.978Z,17.40
2019-01-21T10:44:40.921Z,18.60
2019-01-21T10:47:20.969Z,17.87
2019-01-21T10:50:01.297Z,18.03
2019-01-21T10:52:41.499Z,18.13
2019-01-21T10:55:21.661Z,18.33
2019-01-21T10:58:01.918Z,17.77
2019-01-21T11:00:41.826Z,17.17
2019-01-21T11:03:21.784Z,17.10
2019-01-21T11:11:59.064Z,18.80
2019-01-21T11:14:39.122Z,18.40
2019-01-21T11:17:45.395Z,18.10
2019-01-21T11:20:51.703Z,17.83
2019-01-21T11:23:57.929Z,18.97
2019-01-21T11:27:04.253Z,19.23
2019-01-21T11:30:10.558Z,18.73
2019-01-21T11:33:16.890Z,18.43
2019-01-21T11:35:56.730Z,19.07
2019-01-21T11:38:37.103Z,20.33
2019-01-21T11:41:16.917Z,18.93
2019-01-21T11:43:57.156Z,19.73
2019-01-21T11:46:37.188Z,19.87
2019-01-21T11:49:17.488Z,18.17
2019-01-21T11:51:57.632Z,20.17
2019-01-21T11:54:37.697Z,20.83
2019-01-21T11:57:17.699Z,20.03
2019-01-21T11:59:57.781Z,20.17
2019-01-21T12:02:37.749Z,19.60
2019-01-21T12:05:17.731Z,19.40
2019-01-21T12:07:57.812Z,19.10
2019-01-21T12:10:37.934Z,19.97
2019-01-21T12:13:18.032Z,19.53
2019-01-21T12:15:58.167Z,19.20
2019-01-21T12:18:38.229Z,19.43
2019-01-21T12:21:18.358Z,19.07
2019-01-21T12:23:58.219Z,19.57
2019-01-21T12:26:38.515Z,18.90
2019-01-21T12:29:18.383Z,19.83
2019-01-21T12:31:58.691Z,19.73
2019-01-21T12:34:38.794Z,19.73
2019-01-21T12:37:19.013Z,20.70
2019-01-21T12:39:58.980Z,21.13
2019-01-21T12:42:39.097Z,20.77
2019-01-21T12:45:19.250Z,22.00
2019-01-21T12:47:59.300Z,20.87
2019-01-21T12:50:39.310Z,20.43
2019-01-21T12:53:19.432Z,21.05
2019-01-21T12:55:59.446Z,20.80
2019-01-21T12:58:39.486Z,21.77
2019-01-21T13:01:19.538Z,20.20
2019-01-21T13:03:59.628Z,20.92
2019-01-21T13:06:39.662Z,19.77
2019-01-21T13:09:19.860Z,20.08
2019-01-21T13:12:00.130Z,20.52
2019-01-21T13:14:40.048Z,20.62
2019-01-21T13:17:19.875Z,21.57
2019-01-21T13:20:00.018Z,20.60
2019-01-21T13:22:40.125Z,20.37
2019-01-21T13:25:20.386Z,20.05
2019-01-21T13:28:00.500Z,18.15
2019-01-21T13:30:40.640Z,19.45
2019-01-21T13:33:20.626Z,21.85
2019-01-21T13:36:00.810Z,20.30
2019-01-21T13:38:40.578Z,19.65
2019-01-21T13:41:20.551Z,20.00
2019-01-21T13:44:00.764Z,17.07
2019-01-21T13:46:40.885Z,18.10
2019-01-21T13:49:20.946Z,17.62
2019-01-21T13:52:01.425Z,17.07
2019-01-21T13:54:41.058Z,16.23
2019-01-21T13:57:20.917Z,15.00
2019-01-21T14:00:01.043Z,15.68
2019-01-21T14:02:41.113Z,15.35
2019-01-21T14:05:21.284Z,14.80
2019-01-21T14:08:01.417Z,14.98
2019-01-21T14:10:41.213Z,14.85
2019-01-21T14:13:26.364Z,14.10
2019-01-21T14:16:03.349Z,13.75
2019-01-21T14:18:43.466Z,14.70
2019-01-21T14:21:23.507Z,13.25
2019-01-21T14:24:03.250Z,15.38
2019-01-21T14:26:43.429Z,15.23
2019-01-21T14:29:23.525Z,16.75
2019-01-21T14:32:03.383Z,17.32
2019-01-21T14:34:43.590Z,17.87
2019-01-21T14:37:23.901Z,17.45
2019-01-21T14:40:03.771Z,17.40
2019-01-21T14:42:43.935Z,16.93
2019-01-21T14:45:24.073Z,18.48
2019-01-21T14:48:04.430Z,19.92
2019-01-21T14:50:50.280Z,18.12
2019-01-21T14:53:26.340Z,18.55
2019-01-21T14:56:06.589Z,18.45
2019-01-21T14:58:46.625Z,18.95
2019-01-21T15:01:26.787Z,21.12
2019-01-21T15:04:07.045Z,19.90
2019-01-21T15:06:47.130Z,20.95
2019-01-21T15:09:27.016Z,20.72
2019-01-21T15:12:06.923Z,20.43
2019-01-21T15:14:46.973Z,20.37
2019-01-21T15:17:26.892Z,20.35
2019-01-21T15:20:06.821Z,21.95
2019-01-21T15:22:46.801Z,20.43
2019-01-21T15:25:26.977Z,20.68
2019-01-21T15:28:07.129Z,20.43
2019-01-21T15:30:47.110Z,22.10
2019-01-21T15:33:26.964Z,21.45
2019-01-21T15:36:07.045Z,22.13
2019-01-21T15:38:46.913Z,21.23
2019-01-21T15:41:27.045Z,21.80
2019-01-21T15:44:07.316Z,22.87
2019-01-21T15:46:47.362Z,21.82
2019-01-21T15:49:27.349Z,21.10
2019-01-21T15:52:07.140Z,22.42
2019-01-21T15:54:47.318Z,22.90
2019-01-21T15:57:27.589Z,22.55
2019-01-21T16:00:07.455Z,24.35
2019-01-21T16:02:47.739Z,23.35
2019-01-21T16:05:27.704Z,21.20
2019-01-21T16:08:07.832Z,21.95
2019-01-21T16:10:47.526Z,20.97
2019-01-21T16:13:27.588Z,22.70
2019-01-21T16:16:09.364Z,22.42
2019-01-21T16:18:49.378Z,22.25
2019-01-21T16:21:29.185Z,21.65
2019-01-21T16:24:09.364Z,21.90
2019-01-21T16:26:49.598Z,22.73
2019-01-21T16:29:29.577Z,22.20
2019-01-21T16:32:09.816Z,22.82
2019-01-21T16:34:49.599Z,23.32
2019-01-21T16:37:29.650Z,23.07
2019-01-21T16:40:09.704Z,22.42
2019-01-21T16:42:49.835Z,23.87
2019-01-21T16:45:29.810Z,23.70
2019-01-21T16:48:10.032Z,24.27
2019-01-21T16:50:49.916Z,24.67
2019-01-21T16:53:29.974Z,25.95
2019-01-21T16:56:10.095Z,24.25
2019-01-21T16:58:50.284Z,23.20
2019-01-21T17:01:30.240Z,23.50
2019-01-21T17:04:10.464Z,25.08
2019-01-21T17:06:54.470Z,25.55
2019-01-21T17:09:34.286Z,27.17
2019-01-21T17:12:14.202Z,25.40
2019-01-21T17:14:57.640Z,25.92
2019-01-21T17:17:36.668Z,25.40
2019-01-21T17:20:16.422Z,26.25
2019-01-21T17:22:56.646Z,25.27
2019-01-21T17:25:37.786Z,25.55
2019-01-21T17:28:17.478Z,25.77
2019-01-21T17:30:57.422Z,26.20
2019-01-21T17:33:37.547Z,25.70
2019-01-21T17:36:17.594Z,27.37
2019-01-21T17:39:52.227Z,24.80
2019-01-21T17:42:05.882Z,24.72
2019-01-21T17:44:45.968Z,26.50
2019-01-21T17:47:25.968Z,27.60
2019-01-21T17:50:06.085Z,26.97
2019-01-21T17:52:46.062Z,27.02
2019-01-21T17:55:26.085Z,26.42
2019-01-21T17:58:05.967Z,26.15
2019-01-21T18:00:46.075Z,25.48
2019-01-21T18:03:26.370Z,34.35
2019-01-21T18:06:06.354Z,28.35
2019-01-21T18:08:46.534Z,26.95
2019-01-21T18:11:26.842Z,27.22
2019-01-21T18:14:06.870Z,28.73
2019-01-21T18:16:47.036Z,27.93
2019-01-21T18:19:27.306Z,27.93
2019-01-21T18:22:07.501Z,27.65
2019-01-21T18:24:47.454Z,28.65
2019-01-21T18:27:27.558Z,28.70
2019-01-21T18:30:07.629Z,28.73
2019-01-21T18:32:47.759Z,29.98
2019-01-21T18:35:27.941Z,30.35
2019-01-21T18:38:08.195Z,29.00
2019-01-21T18:40:48.192Z,29.05
2019-01-21T18:43:28.363Z,29.67
2019-01-21T18:46:08.311Z,28.70
2019-01-21T18:48:48.502Z,28.83
2019-01-21T18:51:28.376Z,30.97
2019-01-21T18:54:08.449Z,32.38
2019-01-21T18:56:48.649Z,32.15
2019-01-21T18:59:28.719Z,30.30
2019-01-21T19:02:08.808Z,28.07
2019-01-21T19:04:48.811Z,27.22
2019-01-21T19:07:29.028Z,28.12
2019-01-21T19:10:09.105Z,29.05
2019-01-21T19:12:49.378Z,29.45
2019-01-21T19:15:29.414Z,28.40
2019-01-21T19:18:09.422Z,27.60
2019-01-21T19:20:49.622Z,27.48
2019-01-21T19:23:29.716Z,28.17
2019-01-21T19:26:09.764Z,26.73
2019-01-21T19:28:49.865Z,28.40
2019-01-21T19:31:29.850Z,27.82
2019-01-21T19:34:13.184Z,28.70
2019-01-21T19:36:52.997Z,27.32
2019-01-21T19:39:32.908Z,27.85
2019-01-21T19:42:12.836Z,27.82
2019-01-21T19:44:53.083Z,29.30
2019-01-21T19:47:33.271Z,28.27
2019-01-21T19:50:13.480Z,27.82
2019-01-21T19:52:53.622Z,28.55
2019-01-21T19:55:33.706Z,29.15
2019-01-21T19:58:13.683Z,27.98
2019-01-21T20:00:53.766Z,29.05
2019-01-21T20:03:34.045Z,29.70
2019-01-21T20:06:13.814Z,28.73
2019-01-21T20:08:54.112Z,29.85
2019-01-21T20:11:34.925Z,29.23
2019-01-21T20:14:15.466Z,30.82
2019-01-21T20:16:55.402Z,29.40
2019-01-21T20:19:35.338Z,29.42
2019-01-21T20:22:15.487Z,29.92
2019-01-21T20:24:55.726Z,30.25
2019-01-21T20:27:36.984Z,30.72
2019-01-21T20:30:16.985Z,29.27
2019-01-21T20:32:57.060Z,31.52
2019-01-21T20:35:37.109Z,29.05
2019-01-21T20:38:17.130Z,30.60
2019-01-21T20:40:57.146Z,29.45
2019-01-21T20:43:37.340Z,28.85
2019-01-21T20:46:17.152Z,30.20
2019-01-21T20:48:57.229Z,30.75
2019-01-21T20:51:37.346Z,29.63
2019-01-21T20:54:17.601Z,30.88
2019-01-21T20:56:57.796Z,31.75
2019-01-21T20:59:37.900Z,32.03
2019-01-21T21:02:18.018Z,40.48
2019-01-21T21:04:55.961Z,31.48
2019-01-21T21:07:42.691Z,29.32
2019-01-21T21:10:29.511Z,30.17
2019-01-21T21:13:16.374Z,30.40
2019-01-21T21:16:25.294Z,29.67
2019-01-21T21:19:12.021Z,29.63
2019-01-21T21:21:58.929Z,29.87
2019-01-21T21:25:06.793Z,27.50
2019-01-21T21:27:53.637Z,30.52
2019-01-21T21:30:40.469Z,30.23
2019-01-21T21:36:57.380Z,27.87
2019-01-21T21:39:44.186Z,28.55
2019-01-21T21:42:46.261Z,27.52
2019-01-21T21:45:27.901Z,28.80
2019-01-21T21:48:07.737Z,29.72
2019-01-21T21:50:47.871Z,30.35
2019-01-21T21:53:28.054Z,30.25
2019-01-21T21:56:08.209Z,30.90
2019-01-21T21:58:48.754Z,28.35
2019-01-21T22:01:28.475Z,28.92
2019-01-21T22:04:08.460Z,32.17
2019-01-21T22:06:48.441Z,30.00
2019-01-21T22:09:28.633Z,26.68
2019-01-21T22:12:08.853Z,26.30
2019-01-21T22:14:49.169Z,29.82
2019-01-21T22:17:29.331Z,25.80
2019-01-21T22:20:09.385Z,27.22
2019-01-21T22:22:49.651Z,28.47
2019-01-21T22:25:29.534Z,30.90
2019-01-21T22:28:09.709Z,30.00
2019-01-21T22:30:49.773Z,29.80
2019-01-21T22:33:29.945Z,29.35
2019-01-21T22:36:10.145Z,28.67
2019-01-21T22:38:50.151Z,28.75
2019-01-21T22:41:31.481Z,26.45
2019-01-21T22:44:11.456Z,28.77
2019-01-21T22:46:51.683Z,26.70
2019-01-21T22:49:32.053Z,27.67
2019-01-21T22:52:12.093Z,27.60
2019-01-21T22:54:52.229Z,29.48
2019-01-21T22:57:31.799Z,28.92
2019-01-21T23:00:11.345Z,27.82
2019-01-21T23:02:51.784Z,28.65
2019-01-21T23:05:31.980Z,24.72
2019-01-21T23:08:12.033Z,28.10
2019-01-21T23:10:51.758Z,25.52
2019-01-21T23:13:31.729Z,22.75
2019-01-21T23:16:11.745Z,29.02
2019-01-21T23:18:51.988Z,29.45
2019-01-21T23:21:32.113Z,28.92
2019-01-21T23:24:11.987Z,27.20
2019-01-21T23:26:52.731Z,28.05
2019-01-21T23:29:32.491Z,30.00
2019-01-21T23:32:12.515Z,27.35
2019-01-21T23:34:52.599Z,30.40
2019-01-21T23:37:32.698Z,29.10
2019-01-21T23:40:12.794Z,27.65
2019-01-21T23:42:52.762Z,23.87
2019-01-21T23:45:32.761Z,30.68
2019-01-21T23:48:12.894Z,30.80
2019-01-21T23:50:52.831Z,26.02
2019-01-21T23:53:32.874Z,30.02
2019-01-21T23:56:13.156Z,28.45
2019-01-21T23:58:53.328Z,28.42
